sensor_id;sensor_type;location;lat;lon;timestamp;P1;durP1;ratioP1;P2;durP2;ratioP2
18316;SDS011;9284;52.298;21.164;2023-04-25T00:01:56;16.75;;;11.93;;
18316;SDS011;9284;52.298;21.164;2023-04-25T00:04:26;19.30;;;12.43;;
18316;SDS011;9284;52.298;21.164;2023-04-25T00:06:56;17.70;;;11.68;;
18316;SDS011;9284;52.298;21.164;2023-04-25T00:09:25;17.08;;;12.50;;
18316;SDS011;9284;52.298;21.164;2023-04-25T00:11:54;15.63;;;11.52;;
18316;SDS011;9284;52.298;21.164;2023-04-25T00:14:22;17.90;;;12.48;;
18316;SDS011;9284;52.298;21.164;2023-04-25T00:16:52;24.33;;;12.35;;
18316;SDS011;9284;52.298;21.164;2023-04-25T00:19:20;16.20;;;11.80;;
18316;SDS011;9284;52.298;21.164;2023-04-25T00:21:48;17.05;;;12.02;;
18316;SDS011;9284;52.298;21.164;2023-04-25T00:24:17;18.73;;;12.65;;
18316;SDS011;9284;52.298;21.164;2023-04-25T00:26:45;18.48;;;12.35;;
18316;SDS011;9284;52.298;21.164;2023-04-25T00:29:14;16.52;;;12.20;;
18316;SDS011;9284;52.298;21.164;2023-04-25T00:31:42;17.95;;;12.38;;
18316;SDS011;9284;52.298;21.164;2023-04-25T00:34:12;20.27;;;12.75;;
18316;SDS011;9284;52.298;21.164;2023-04-25T00:36:40;19.90;;;12.18;;
18316;SDS011;9284;52.298;21.164;2023-04-25T00:39:08;17.27;;;11.88;;
18316;SDS011;9284;52.298;21.164;2023-04-25T00:41:36;19.55;;;11.85;;
18316;SDS011;9284;52.298;21.164;2023-04-25T00:44:06;17.55;;;11.98;;
18316;SDS011;9284;52.298;21.164;2023-04-25T00:46:38;16.10;;;11.45;;
18316;SDS011;9284;52.298;21.164;2023-04-25T00:49:07;18.50;;;11.70;;
18316;SDS011;9284;52.298;21.164;2023-04-25T00:51:36;19.40;;;12.45;;
18316;SDS011;9284;52.298;21.164;2023-04-25T00:54:05;17.80;;;11.77;;
18316;SDS011;9284;52.298;21.164;2023-04-25T00:56:33;17.20;;;11.95;;
18316;SDS011;9284;52.298;21.164;2023-04-25T00:59:01;20.13;;;12.00;;
18316;SDS011;9284;52.298;21.164;2023-04-25T01:01:29;19.40;;;13.02;;
18316;SDS011;9284;52.298;21.164;2023-04-25T01:03:58;24.10;;;15.15;;
18316;SDS011;9284;52.298;21.164;2023-04-25T01:06:27;20.65;;;13.48;;
18316;SDS011;9284;52.298;21.164;2023-04-25T01:08:58;19.70;;;13.02;;
18316;SDS011;9284;52.298;21.164;2023-04-25T01:11:26;21.50;;;12.45;;
18316;SDS011;9284;52.298;21.164;2023-04-25T01:13:55;19.77;;;12.75;;
18316;SDS011;9284;52.298;21.164;2023-04-25T01:16:23;17.85;;;12.55;;
18316;SDS011;9284;52.298;21.164;2023-04-25T01:18:52;16.45;;;11.80;;
18316;SDS011;9284;52.298;21.164;2023-04-25T01:21:21;18.00;;;12.50;;
18316;SDS011;9284;52.298;21.164;2023-04-25T01:23:52;23.90;;;12.25;;
18316;SDS011;9284;52.298;21.164;2023-04-25T01:26:21;19.10;;;12.85;;
18316;SDS011;9284;52.298;21.164;2023-04-25T01:28:50;21.20;;;13.30;;
18316;SDS011;9284;52.298;21.164;2023-04-25T01:31:19;22.20;;;13.18;;
18316;SDS011;9284;52.298;21.164;2023-04-25T01:33:48;20.13;;;12.43;;
18316;SDS011;9284;52.298;21.164;2023-04-25T01:36:16;20.45;;;13.18;;
18316;SDS011;9284;52.298;21.164;2023-04-25T01:38:47;22.48;;;13.18;;
18316;SDS011;9284;52.298;21.164;2023-04-25T01:41:15;18.45;;;13.00;;
18316;SDS011;9284;52.298;21.164;2023-04-25T01:43:44;21.05;;;13.00;;
18316;SDS011;9284;52.298;21.164;2023-04-25T01:46:13;21.70;;;13.18;;
18316;SDS011;9284;52.298;21.164;2023-04-25T01:48:42;18.85;;;12.93;;
18316;SDS011;9284;52.298;21.164;2023-04-25T01:51:11;20.27;;;13.38;;
18316;SDS011;9284;52.298;21.164;2023-04-25T01:53:39;22.23;;;15.45;;
18316;SDS011;9284;52.298;21.164;2023-04-25T01:56:09;21.13;;;13.60;;
18316;SDS011;9284;52.298;21.164;2023-04-25T01:58:38;18.58;;;13.65;;
18316;SDS011;9284;52.298;21.164;2023-04-25T02:01:18;25.20;;;14.00;;
18316;SDS011;9284;52.298;21.164;2023-04-25T02:04:01;23.88;;;14.13;;
18316;SDS011;9284;52.298;21.164;2023-04-25T02:06:34;21.73;;;14.10;;
18316;SDS011;9284;52.298;21.164;2023-04-25T02:09:02;24.88;;;14.23;;
18316;SDS011;9284;52.298;21.164;2023-04-25T02:11:32;23.38;;;14.32;;
18316;SDS011;9284;52.298;21.164;2023-04-25T02:14:18;24.98;;;15.85;;
18316;SDS011;9284;52.298;21.164;2023-04-25T02:17:09;24.70;;;15.10;;
18316;SDS011;9284;52.298;21.164;2023-04-25T02:19:39;25.88;;;16.35;;
18316;SDS011;9284;52.298;21.164;2023-04-25T02:22:07;25.05;;;16.98;;
18316;SDS011;9284;52.298;21.164;2023-04-25T02:24:36;27.42;;;17.02;;
18316;SDS011;9284;52.298;21.164;2023-04-25T02:27:06;32.40;;;18.17;;
18316;SDS011;9284;52.298;21.164;2023-04-25T02:29:35;30.52;;;18.23;;
18316;SDS011;9284;52.298;21.164;2023-04-25T02:32:04;36.35;;;22.08;;
18316;SDS011;9284;52.298;21.164;2023-04-25T02:34:32;41.85;;;23.05;;
18316;SDS011;9284;52.298;21.164;2023-04-25T02:37:00;40.70;;;24.52;;
18316;SDS011;9284;52.298;21.164;2023-04-25T02:39:28;40.20;;;22.70;;
18316;SDS011;9284;52.298;21.164;2023-04-25T02:41:57;35.95;;;21.15;;
18316;SDS011;9284;52.298;21.164;2023-04-25T02:44:29;34.22;;;19.75;;
18316;SDS011;9284;52.298;21.164;2023-04-25T02:46:58;32.00;;;18.02;;
18316;SDS011;9284;52.298;21.164;2023-04-25T02:49:26;29.27;;;17.75;;
18316;SDS011;9284;52.298;21.164;2023-04-25T02:51:54;25.77;;;16.00;;
18316;SDS011;9284;52.298;21.164;2023-04-25T02:54:23;25.70;;;16.35;;
18316;SDS011;9284;52.298;21.164;2023-04-25T02:56:51;25.83;;;16.08;;
18316;SDS011;9284;52.298;21.164;2023-04-25T02:59:24;25.83;;;15.77;;
18316;SDS011;9284;52.298;21.164;2023-04-25T03:01:54;25.90;;;16.38;;
18316;SDS011;9284;52.298;21.164;2023-04-25T03:04:23;24.45;;;14.93;;
18316;SDS011;9284;52.298;21.164;2023-04-25T03:06:51;25.45;;;15.02;;
18316;SDS011;9284;52.298;21.164;2023-04-25T03:09:20;26.17;;;14.82;;
18316;SDS011;9284;52.298;21.164;2023-04-25T03:11:50;22.85;;;13.85;;
18316;SDS011;9284;52.298;21.164;2023-04-25T03:14:19;23.05;;;14.40;;
18316;SDS011;9284;52.298;21.164;2023-04-25T03:16:47;21.85;;;14.00;;
18316;SDS011;9284;52.298;21.164;2023-04-25T03:19:17;25.58;;;14.50;;
18316;SDS011;9284;52.298;21.164;2023-04-25T03:21:47;23.30;;;15.02;;
18316;SDS011;9284;52.298;21.164;2023-04-25T03:24:16;24.50;;;14.07;;
18316;SDS011;9284;52.298;21.164;2023-04-25T03:26:44;21.55;;;14.23;;
18316;SDS011;9284;52.298;21.164;2023-04-25T03:29:13;23.60;;;13.90;;
18316;SDS011;9284;52.298;21.164;2023-04-25T03:31:42;18.63;;;12.65;;
18316;SDS011;9284;52.298;21.164;2023-04-25T03:34:10;24.13;;;13.70;;
18316;SDS011;9284;52.298;21.164;2023-04-25T03:36:42;21.80;;;14.32;;
18316;SDS011;9284;52.298;21.164;2023-04-25T03:39:10;21.15;;;13.27;;
18316;SDS011;9284;52.298;21.164;2023-04-25T03:41:45;25.35;;;16.10;;
18316;SDS011;9284;52.298;21.164;2023-04-25T03:44:17;26.88;;;15.55;;
18316;SDS011;9284;52.298;21.164;2023-04-25T03:46:45;27.80;;;15.00;;
18316;SDS011;9284;52.298;21.164;2023-04-25T03:49:14;22.08;;;14.57;;
18316;SDS011;9284;52.298;21.164;2023-04-25T03:52:01;23.63;;;14.13;;
18316;SDS011;9284;52.298;21.164;2023-04-25T03:54:37;17.48;;;10.48;;
18316;SDS011;9284;52.298;21.164;2023-04-25T03:57:12;23.77;;;11.40;;
18316;SDS011;9284;52.298;21.164;2023-04-25T03:59:42;16.98;;;10.75;;
18316;SDS011;9284;52.298;21.164;2023-04-25T04:02:13;17.60;;;10.00;;
18316;SDS011;9284;52.298;21.164;2023-04-25T04:04:42;15.88;;;10.00;;
18316;SDS011;9284;52.298;21.164;2023-04-25T04:07:13;16.38;;;9.90;;
18316;SDS011;9284;52.298;21.164;2023-04-25T04:09:45;18.05;;;10.63;;
18316;SDS011;9284;52.298;21.164;2023-04-25T04:12:19;19.98;;;11.77;;
18316;SDS011;9284;52.298;21.164;2023-04-25T04:14:48;20.70;;;10.13;;
18316;SDS011;9284;52.298;21.164;2023-04-25T04:17:16;18.83;;;10.30;;
18316;SDS011;9284;52.298;21.164;2023-04-25T04:19:44;16.00;;;9.80;;
18316;SDS011;9284;52.298;21.164;2023-04-25T04:22:18;15.93;;;9.15;;
18316;SDS011;9284;52.298;21.164;2023-04-25T04:24:47;13.82;;;9.10;;
18316;SDS011;9284;52.298;21.164;2023-04-25T04:27:28;14.23;;;9.10;;
18316;SDS011;9284;52.298;21.164;2023-04-25T04:30:16;13.57;;;9.15;;
18316;SDS011;9284;52.298;21.164;2023-04-25T04:32:52;13.05;;;8.68;;
18316;SDS011;9284;52.298;21.164;2023-04-25T04:35:21;12.40;;;8.70;;
18316;SDS011;9284;52.298;21.164;2023-04-25T04:37:51;14.23;;;8.45;;
18316;SDS011;9284;52.298;21.164;2023-04-25T04:40:22;15.93;;;8.55;;
18316;SDS011;9284;52.298;21.164;2023-04-25T04:43:04;12.43;;;7.80;;
18316;SDS011;9284;52.298;21.164;2023-04-25T04:45:54;14.88;;;9.07;;
18316;SDS011;9284;52.298;21.164;2023-04-25T04:48:53;14.60;;;9.15;;
18316;SDS011;9284;52.298;21.164;2023-04-25T04:51:38;14.23;;;9.70;;
18316;SDS011;9284;52.298;21.164;2023-04-25T04:54:15;15.68;;;9.13;;
18316;SDS011;9284;52.298;21.164;2023-04-25T04:57:04;17.27;;;10.00;;
18316;SDS011;9284;52.298;21.164;2023-04-25T04:59:43;15.48;;;10.00;;
18316;SDS011;9284;52.298;21.164;2023-04-25T05:02:46;18.63;;;10.15;;
18316;SDS011;9284;52.298;21.164;2023-04-25T05:05:39;16.45;;;9.52;;
18316;SDS011;9284;52.298;21.164;2023-04-25T05:08:23;16.85;;;10.25;;
18316;SDS011;9284;52.298;21.164;2023-04-25T05:11:28;14.45;;;9.30;;
18316;SDS011;9284;52.298;21.164;2023-04-25T05:14:20;15.43;;;9.70;;
18316;SDS011;9284;52.298;21.164;2023-04-25T05:17:28;14.25;;;9.18;;
18316;SDS011;9284;52.298;21.164;2023-04-25T05:19:59;15.25;;;9.43;;
18316;SDS011;9284;52.298;21.164;2023-04-25T05:22:46;15.82;;;9.88;;
18316;SDS011;9284;52.298;21.164;2023-04-25T05:25:33;24.48;;;10.27;;
18316;SDS011;9284;52.298;21.164;2023-04-25T05:28:08;16.73;;;9.35;;
18316;SDS011;9284;52.298;21.164;2023-04-25T05:30:47;12.27;;;9.35;;
18316;SDS011;9284;52.298;21.164;2023-04-25T05:33:19;14.02;;;8.40;;
18316;SDS011;9284;52.298;21.164;2023-04-25T05:35:47;13.77;;;9.85;;
18316;SDS011;9284;52.298;21.164;2023-04-25T05:38:16;14.90;;;9.35;;
18316;SDS011;9284;52.298;21.164;2023-04-25T05:41:10;13.75;;;9.98;;
18316;SDS011;9284;52.298;21.164;2023-04-25T05:43:47;13.00;;;9.98;;
18316;SDS011;9284;52.298;21.164;2023-04-25T05:46:49;14.18;;;9.88;;
18316;SDS011;9284;52.298;21.164;2023-04-25T05:49:29;13.57;;;9.38;;
18316;SDS011;9284;52.298;21.164;2023-04-25T05:51:57;15.73;;;9.15;;
18316;SDS011;9284;52.298;21.164;2023-04-25T05:54:40;12.52;;;9.15;;
18316;SDS011;9284;52.298;21.164;2023-04-25T05:57:08;15.25;;;9.68;;
18316;SDS011;9284;52.298;21.164;2023-04-25T05:59:48;13.48;;;8.95;;
18316;SDS011;9284;52.298;21.164;2023-04-25T06:02:16;11.02;;;8.27;;
18316;SDS011;9284;52.298;21.164;2023-04-25T06:04:49;13.80;;;8.48;;
18316;SDS011;9284;52.298;21.164;2023-04-25T06:07:17;12.20;;;9.00;;
18316;SDS011;9284;52.298;21.164;2023-04-25T06:09:46;12.30;;;8.50;;
18316;SDS011;9284;52.298;21.164;2023-04-25T06:12:14;10.45;;;8.10;;
18316;SDS011;9284;52.298;21.164;2023-04-25T06:14:43;13.13;;;8.93;;
18316;SDS011;9284;52.298;21.164;2023-04-25T06:17:12;11.75;;;8.65;;
18316;SDS011;9284;52.298;21.164;2023-04-25T06:19:41;12.68;;;8.77;;
18316;SDS011;9284;52.298;21.164;2023-04-25T06:22:09;16.48;;;8.45;;
18316;SDS011;9284;52.298;21.164;2023-04-25T06:24:39;14.25;;;9.00;;
18316;SDS011;9284;52.298;21.164;2023-04-25T06:27:08;12.65;;;8.52;;
18316;SDS011;9284;52.298;21.164;2023-04-25T06:29:37;11.60;;;8.43;;
18316;SDS011;9284;52.298;21.164;2023-04-25T06:32:06;10.80;;;8.50;;
18316;SDS011;9284;52.298;21.164;2023-04-25T06:34:36;11.90;;;8.38;;
18316;SDS011;9284;52.298;21.164;2023-04-25T06:37:07;11.63;;;8.60;;
18316;SDS011;9284;52.298;21.164;2023-04-25T06:39:36;13.38;;;8.50;;
18316;SDS011;9284;52.298;21.164;2023-04-25T06:42:06;11.55;;;8.93;;
18316;SDS011;9284;52.298;21.164;2023-04-25T06:44:49;12.32;;;9.30;;
18316;SDS011;9284;52.298;21.164;2023-04-25T06:47:18;12.90;;;8.85;;
18316;SDS011;9284;52.298;21.164;2023-04-25T06:49:49;13.57;;;9.77;;
18316;SDS011;9284;52.298;21.164;2023-04-25T06:52:20;15.38;;;10.23;;
18316;SDS011;9284;52.298;21.164;2023-04-25T06:54:51;14.82;;;10.25;;
18316;SDS011;9284;52.298;21.164;2023-04-25T06:57:54;17.05;;;10.95;;
18316;SDS011;9284;52.298;21.164;2023-04-25T07:00:41;21.02;;;13.23;;
18316;SDS011;9284;52.298;21.164;2023-04-25T07:03:09;17.27;;;11.93;;
18316;SDS011;9284;52.298;21.164;2023-04-25T07:05:40;16.25;;;11.48;;
18316;SDS011;9284;52.298;21.164;2023-04-25T07:08:09;18.50;;;12.35;;
18316;SDS011;9284;52.298;21.164;2023-04-25T07:10:37;17.13;;;11.82;;
18316;SDS011;9284;52.298;21.164;2023-04-25T07:13:05;16.02;;;11.30;;
18316;SDS011;9284;52.298;21.164;2023-04-25T07:15:34;15.80;;;11.95;;
18316;SDS011;9284;52.298;21.164;2023-04-25T07:18:02;17.20;;;12.00;;
18316;SDS011;9284;52.298;21.164;2023-04-25T07:20:31;17.52;;;12.48;;
18316;SDS011;9284;52.298;21.164;2023-04-25T07:23:02;20.35;;;13.48;;
18316;SDS011;9284;52.298;21.164;2023-04-25T07:25:30;19.95;;;12.57;;
18316;SDS011;9284;52.298;21.164;2023-04-25T07:28:00;17.73;;;12.98;;
18316;SDS011;9284;52.298;21.164;2023-04-25T07:30:29;17.08;;;13.02;;
18316;SDS011;9284;52.298;21.164;2023-04-25T07:32:58;17.48;;;12.82;;
18316;SDS011;9284;52.298;21.164;2023-04-25T07:35:30;15.63;;;12.25;;
18316;SDS011;9284;52.298;21.164;2023-04-25T07:37:59;19.25;;;12.23;;
18316;SDS011;9284;52.298;21.164;2023-04-25T07:40:29;17.20;;;12.45;;
18316;SDS011;9284;52.298;21.164;2023-04-25T07:43:04;16.90;;;12.10;;
18316;SDS011;9284;52.298;21.164;2023-04-25T07:45:48;18.05;;;11.20;;
18316;SDS011;9284;52.298;21.164;2023-04-25T07:48:18;15.40;;;11.57;;
18316;SDS011;9284;52.298;21.164;2023-04-25T07:50:49;14.82;;;11.05;;
18316;SDS011;9284;52.298;21.164;2023-04-25T07:53:18;17.70;;;11.73;;
18316;SDS011;9284;52.298;21.164;2023-04-25T07:55:54;16.38;;;11.65;;
18316;SDS011;9284;52.298;21.164;2023-04-25T07:58:23;16.95;;;11.60;;
18316;SDS011;9284;52.298;21.164;2023-04-25T08:00:56;14.75;;;10.52;;
18316;SDS011;9284;52.298;21.164;2023-04-25T08:03:39;14.50;;;10.32;;
18316;SDS011;9284;52.298;21.164;2023-04-25T08:06:14;12.60;;;8.93;;
18316;SDS011;9284;52.298;21.164;2023-04-25T08:09:02;15.05;;;9.75;;
18316;SDS011;9284;52.298;21.164;2023-04-25T08:11:38;12.23;;;9.38;;
18316;SDS011;9284;52.298;21.164;2023-04-25T08:14:09;13.15;;;9.45;;
18316;SDS011;9284;52.298;21.164;2023-04-25T08:16:41;10.77;;;8.52;;
18316;SDS011;9284;52.298;21.164;2023-04-25T08:19:10;10.18;;;7.50;;
18316;SDS011;9284;52.298;21.164;2023-04-25T08:21:38;9.77;;;7.40;;
18316;SDS011;9284;52.298;21.164;2023-04-25T08:24:11;9.07;;;6.82;;
18316;SDS011;9284;52.298;21.164;2023-04-25T08:26:41;10.77;;;7.20;;
18316;SDS011;9284;52.298;21.164;2023-04-25T08:29:14;7.25;;;6.28;;
18316;SDS011;9284;52.298;21.164;2023-04-25T08:31:43;7.05;;;5.60;;
18316;SDS011;9284;52.298;21.164;2023-04-25T08:34:12;8.48;;;6.20;;
18316;SDS011;9284;52.298;21.164;2023-04-25T08:36:44;11.02;;;5.82;;
18316;SDS011;9284;52.298;21.164;2023-04-25T08:39:33;8.75;;;6.32;;
18316;SDS011;9284;52.298;21.164;2023-04-25T08:42:18;7.90;;;5.93;;
18316;SDS011;9284;52.298;21.164;2023-04-25T08:44:52;10.95;;;7.03;;
18316;SDS011;9284;52.298;21.164;2023-04-25T08:47:25;11.60;;;6.60;;
18316;SDS011;9284;52.298;21.164;2023-04-25T08:49:56;9.27;;;6.18;;
18316;SDS011;9284;52.298;21.164;2023-04-25T08:52:27;7.80;;;5.93;;
18316;SDS011;9284;52.298;21.164;2023-04-25T08:55:00;8.88;;;6.75;;
18316;SDS011;9284;52.298;21.164;2023-04-25T08:57:33;7.65;;;6.32;;
18316;SDS011;9284;52.298;21.164;2023-04-25T09:00:03;7.03;;;6.07;;
18316;SDS011;9284;52.298;21.164;2023-04-25T09:02:37;10.10;;;7.40;;
18316;SDS011;9284;52.298;21.164;2023-04-25T09:05:07;10.50;;;6.88;;
18316;SDS011;9284;52.298;21.164;2023-04-25T09:07:37;10.60;;;7.55;;
18316;SDS011;9284;52.298;21.164;2023-04-25T09:10:05;8.68;;;6.55;;
18316;SDS011;9284;52.298;21.164;2023-04-25T09:12:37;8.82;;;7.13;;
18316;SDS011;9284;52.298;21.164;2023-04-25T09:15:08;8.95;;;7.43;;
18316;SDS011;9284;52.298;21.164;2023-04-25T09:18:04;8.25;;;7.13;;
18316;SDS011;9284;52.298;21.164;2023-04-25T09:20:40;10.95;;;7.68;;
18316;SDS011;9284;52.298;21.164;2023-04-25T09:23:29;8.70;;;7.03;;
18316;SDS011;9284;52.298;21.164;2023-04-25T09:25:57;13.15;;;7.53;;
18316;SDS011;9284;52.298;21.164;2023-04-25T09:28:26;8.73;;;7.15;;
18316;SDS011;9284;52.298;21.164;2023-04-25T09:30:59;9.32;;;7.38;;
18316;SDS011;9284;52.298;21.164;2023-04-25T09:33:35;10.15;;;7.65;;
18316;SDS011;9284;52.298;21.164;2023-04-25T09:36:07;9.73;;;7.20;;
18316;SDS011;9284;52.298;21.164;2023-04-25T09:38:50;9.65;;;8.15;;
18316;SDS011;9284;52.298;21.164;2023-04-25T09:41:25;12.70;;;8.75;;
18316;SDS011;9284;52.298;21.164;2023-04-25T09:43:59;10.55;;;8.75;;
18316;SDS011;9284;52.298;21.164;2023-04-25T09:46:35;11.48;;;8.30;;
18316;SDS011;9284;52.298;21.164;2023-04-25T09:49:14;12.43;;;8.77;;
18316;SDS011;9284;52.298;21.164;2023-04-25T09:51:54;10.73;;;8.77;;
18316;SDS011;9284;52.298;21.164;2023-04-25T09:54:28;11.95;;;8.98;;
18316;SDS011;9284;52.298;21.164;2023-04-25T09:57:20;12.57;;;9.38;;
18316;SDS011;9284;52.298;21.164;2023-04-25T09:59:52;11.65;;;8.18;;
18316;SDS011;9284;52.298;21.164;2023-04-25T10:02:24;14.02;;;10.32;;
18316;SDS011;9284;52.298;21.164;2023-04-25T10:05:00;13.25;;;9.70;;
18316;SDS011;9284;52.298;21.164;2023-04-25T10:07:37;12.30;;;9.73;;
18316;SDS011;9284;52.298;21.164;2023-04-25T10:10:15;12.35;;;9.40;;
18316;SDS011;9284;52.298;21.164;2023-04-25T10:12:45;11.80;;;9.27;;
18316;SDS011;9284;52.298;21.164;2023-04-25T10:15:14;11.23;;;9.02;;
18316;SDS011;9284;52.298;21.164;2023-04-25T10:17:43;11.80;;;9.35;;
18316;SDS011;9284;52.298;21.164;2023-04-25T10:20:11;14.30;;;9.65;;
18316;SDS011;9284;52.298;21.164;2023-04-25T10:22:41;13.95;;;9.77;;
18316;SDS011;9284;52.298;21.164;2023-04-25T10:25:11;14.15;;;9.13;;
18316;SDS011;9284;52.298;21.164;2023-04-25T10:27:40;12.82;;;8.93;;
18316;SDS011;9284;52.298;21.164;2023-04-25T10:30:09;10.43;;;8.13;;
18316;SDS011;9284;52.298;21.164;2023-04-25T10:32:43;12.07;;;8.68;;
18316;SDS011;9284;52.298;21.164;2023-04-25T10:35:14;13.20;;;8.85;;
18316;SDS011;9284;52.298;21.164;2023-04-25T10:37:59;12.13;;;8.90;;
18316;SDS011;9284;52.298;21.164;2023-04-25T10:40:30;11.52;;;9.35;;
18316;SDS011;9284;52.298;21.164;2023-04-25T10:46:01;18.10;;;10.35;;
18316;SDS011;9284;52.298;21.164;2023-04-25T10:48:33;12.60;;;9.88;;
18316;SDS011;9284;52.298;21.164;2023-04-25T10:51:08;16.90;;;10.30;;
18316;SDS011;9284;52.298;21.164;2023-04-25T10:53:37;14.68;;;10.68;;
18316;SDS011;9284;52.298;21.164;2023-04-25T10:56:09;15.27;;;11.50;;
18316;SDS011;9284;52.298;21.164;2023-04-25T10:58:43;16.30;;;10.95;;
18316;SDS011;9284;52.298;21.164;2023-04-25T11:01:12;14.55;;;11.63;;
18316;SDS011;9284;52.298;21.164;2023-04-25T11:03:42;15.00;;;11.98;;
18316;SDS011;9284;52.298;21.164;2023-04-25T11:06:15;15.07;;;11.70;;
18316;SDS011;9284;52.298;21.164;2023-04-25T11:08:50;16.90;;;12.98;;
18316;SDS011;9284;52.298;21.164;2023-04-25T11:11:19;16.80;;;13.25;;
18316;SDS011;9284;52.298;21.164;2023-04-25T11:13:50;20.33;;;12.95;;
18316;SDS011;9284;52.298;21.164;2023-04-25T11:16:18;17.50;;;12.75;;
18316;SDS011;9284;52.298;21.164;2023-04-25T11:18:51;21.00;;;12.07;;
18316;SDS011;9284;52.298;21.164;2023-04-25T11:21:19;14.48;;;10.15;;
18316;SDS011;9284;52.298;21.164;2023-04-25T11:23:47;13.93;;;9.80;;
18316;SDS011;9284;52.298;21.164;2023-04-25T11:26:16;14.88;;;9.75;;
18316;SDS011;9284;52.298;21.164;2023-04-25T11:28:46;13.63;;;9.65;;
18316;SDS011;9284;52.298;21.164;2023-04-25T11:31:18;11.63;;;9.13;;
18316;SDS011;9284;52.298;21.164;2023-04-25T11:33:48;10.80;;;8.18;;
18316;SDS011;9284;52.298;21.164;2023-04-25T11:36:20;10.15;;;7.40;;
18316;SDS011;9284;52.298;21.164;2023-04-25T11:38:52;11.55;;;8.02;;
18316;SDS011;9284;52.298;21.164;2023-04-25T11:41:21;8.60;;;6.78;;
18316;SDS011;9284;52.298;21.164;2023-04-25T11:43:52;7.40;;;5.90;;
18316;SDS011;9284;52.298;21.164;2023-04-25T11:46:21;7.78;;;5.82;;
18316;SDS011;9284;52.298;21.164;2023-04-25T11:48:51;6.40;;;5.20;;
18316;SDS011;9284;52.298;21.164;2023-04-25T11:51:25;7.38;;;4.75;;
18316;SDS011;9284;52.298;21.164;2023-04-25T11:53:53;10.02;;;5.63;;
18316;SDS011;9284;52.298;21.164;2023-04-25T11:56:22;6.30;;;5.35;;
18316;SDS011;9284;52.298;21.164;2023-04-25T11:58:54;5.93;;;4.70;;
18316;SDS011;9284;52.298;21.164;2023-04-25T12:01:27;11.27;;;4.68;;
18316;SDS011;9284;52.298;21.164;2023-04-25T12:04:12;5.68;;;4.38;;
18316;SDS011;9284;52.298;21.164;2023-04-25T12:06:43;6.00;;;4.30;;
18316;SDS011;9284;52.298;21.164;2023-04-25T12:09:15;6.25;;;4.80;;
18316;SDS011;9284;52.298;21.164;2023-04-25T12:11:48;5.65;;;4.47;;
18316;SDS011;9284;52.298;21.164;2023-04-25T12:14:21;9.88;;;6.35;;
18316;SDS011;9284;52.298;21.164;2023-04-25T12:16:50;6.40;;;5.05;;
18316;SDS011;9284;52.298;21.164;2023-04-25T12:19:20;8.63;;;5.47;;
18316;SDS011;9284;52.298;21.164;2023-04-25T12:21:49;9.93;;;5.82;;
18316;SDS011;9284;52.298;21.164;2023-04-25T12:24:21;13.80;;;6.35;;
18316;SDS011;9284;52.298;21.164;2023-04-25T12:26:52;19.48;;;7.85;;
18316;SDS011;9284;52.298;21.164;2023-04-25T12:29:28;8.82;;;5.05;;
18316;SDS011;9284;52.298;21.164;2023-04-25T12:32:04;9.25;;;5.10;;
18316;SDS011;9284;52.298;21.164;2023-04-25T12:34:33;9.70;;;5.55;;
18316;SDS011;9284;52.298;21.164;2023-04-25T12:37:02;6.75;;;5.18;;
18316;SDS011;9284;52.298;21.164;2023-04-25T12:39:31;8.93;;;5.60;;
18316;SDS011;9284;52.298;21.164;2023-04-25T12:41:59;9.15;;;5.88;;
18316;SDS011;9284;52.298;21.164;2023-04-25T12:44:28;10.52;;;5.65;;
18316;SDS011;9284;52.298;21.164;2023-04-25T12:46:56;6.47;;;4.60;;
18316;SDS011;9284;52.298;21.164;2023-04-25T12:49:26;6.43;;;4.50;;
18316;SDS011;9284;52.298;21.164;2023-04-25T12:51:56;5.68;;;4.15;;
18316;SDS011;9284;52.298;21.164;2023-04-25T12:54:24;8.45;;;5.15;;
18316;SDS011;9284;52.298;21.164;2023-04-25T12:56:53;7.82;;;5.13;;
18316;SDS011;9284;52.298;21.164;2023-04-25T12:59:21;11.07;;;5.20;;
18316;SDS011;9284;52.298;21.164;2023-04-25T13:01:49;8.93;;;5.15;;
18316;SDS011;9284;52.298;21.164;2023-04-25T13:04:18;8.98;;;4.78;;
18316;SDS011;9284;52.298;21.164;2023-04-25T13:06:48;8.73;;;4.53;;
18316;SDS011;9284;52.298;21.164;2023-04-25T13:09:17;13.65;;;7.32;;
18316;SDS011;9284;52.298;21.164;2023-04-25T13:11:47;26.25;;;16.63;;
18316;SDS011;9284;52.298;21.164;2023-04-25T13:14:15;8.07;;;5.35;;
18316;SDS011;9284;52.298;21.164;2023-04-25T13:16:43;6.47;;;4.28;;
18316;SDS011;9284;52.298;21.164;2023-04-25T13:19:12;6.22;;;4.80;;
18316;SDS011;9284;52.298;21.164;2023-04-25T13:21:40;8.68;;;6.10;;
18316;SDS011;9284;52.298;21.164;2023-04-25T13:24:08;8.02;;;3.92;;
18316;SDS011;9284;52.298;21.164;2023-04-25T13:26:38;4.97;;;3.70;;
18316;SDS011;9284;52.298;21.164;2023-04-25T13:29:06;6.03;;;4.03;;
18316;SDS011;9284;52.298;21.164;2023-04-25T13:31:35;7.38;;;3.15;;
18316;SDS011;9284;52.298;21.164;2023-04-25T13:34:03;7.78;;;3.60;;
18316;SDS011;9284;52.298;21.164;2023-04-25T13:36:32;5.07;;;3.65;;
18316;SDS011;9284;52.298;21.164;2023-04-25T13:39:00;6.65;;;4.25;;
18316;SDS011;9284;52.298;21.164;2023-04-25T13:41:29;5.40;;;3.70;;
18316;SDS011;9284;52.298;21.164;2023-04-25T13:43:59;8.90;;;3.58;;
18316;SDS011;9284;52.298;21.164;2023-04-25T13:46:37;4.22;;;3.42;;
18316;SDS011;9284;52.298;21.164;2023-04-25T13:49:12;7.45;;;4.18;;
18316;SDS011;9284;52.298;21.164;2023-04-25T13:51:41;4.82;;;3.67;;
18316;SDS011;9284;52.298;21.164;2023-04-25T13:54:12;7.68;;;4.30;;
18316;SDS011;9284;52.298;21.164;2023-04-25T13:56:40;5.18;;;3.60;;
18316;SDS011;9284;52.298;21.164;2023-04-25T13:59:10;6.63;;;3.78;;
18316;SDS011;9284;52.298;21.164;2023-04-25T14:01:41;5.82;;;3.53;;
18316;SDS011;9284;52.298;21.164;2023-04-25T14:04:10;8.90;;;3.00;;
18316;SDS011;9284;52.298;21.164;2023-04-25T14:06:38;5.22;;;2.83;;
18316;SDS011;9284;52.298;21.164;2023-04-25T14:09:09;6.78;;;3.03;;
18316;SDS011;9284;52.298;21.164;2023-04-25T14:11:39;4.75;;;3.33;;
18316;SDS011;9284;52.298;21.164;2023-04-25T14:14:07;5.35;;;3.50;;
18316;SDS011;9284;52.298;21.164;2023-04-25T14:16:36;8.23;;;3.70;;
18316;SDS011;9284;52.298;21.164;2023-04-25T14:19:05;8.55;;;4.25;;
18316;SDS011;9284;52.298;21.164;2023-04-25T14:21:33;14.50;;;4.53;;
18316;SDS011;9284;52.298;21.164;2023-04-25T14:24:01;18.17;;;4.90;;
18316;SDS011;9284;52.298;21.164;2023-04-25T14:26:31;7.72;;;4.25;;
18316;SDS011;9284;52.298;21.164;2023-04-25T14:29:01;5.53;;;3.10;;
18316;SDS011;9284;52.298;21.164;2023-04-25T14:31:30;10.63;;;3.63;;
18316;SDS011;9284;52.298;21.164;2023-04-25T14:34:00;4.65;;;3.40;;
18316;SDS011;9284;52.298;21.164;2023-04-25T14:36:29;11.27;;;4.38;;
18316;SDS011;9284;52.298;21.164;2023-04-25T14:38:58;5.75;;;4.85;;
18316;SDS011;9284;52.298;21.164;2023-04-25T14:41:27;9.15;;;5.20;;
18316;SDS011;9284;52.298;21.164;2023-04-25T14:43:55;5.28;;;4.45;;
18316;SDS011;9284;52.298;21.164;2023-04-25T14:46:24;6.78;;;4.90;;
18316;SDS011;9284;52.298;21.164;2023-04-25T14:48:53;7.78;;;4.72;;
18316;SDS011;9284;52.298;21.164;2023-04-25T14:51:23;6.10;;;4.82;;
18316;SDS011;9284;52.298;21.164;2023-04-25T14:53:52;7.65;;;5.60;;
18316;SDS011;9284;52.298;21.164;2023-04-25T14:56:21;7.75;;;5.57;;
18316;SDS011;9284;52.298;21.164;2023-04-25T14:58:49;9.48;;;6.03;;
18316;SDS011;9284;52.298;21.164;2023-04-25T15:01:18;10.35;;;6.38;;
18316;SDS011;9284;52.298;21.164;2023-04-25T15:03:48;10.88;;;6.30;;
18316;SDS011;9284;52.298;21.164;2023-04-25T15:06:18;10.98;;;6.63;;